Northborough, Massachusetts
Current Conditions -  °F | °C
As of 8:54 PM on Thursday 20 Nov 2014 (Local Time) from KORH Reporting Station
Broken Clouds Broken Clouds  
Wind Chill: 22°   Ceiling: 6000
Heat Index: 28°   Visibility: 10mi
Dew Point: 18°   Wind: 6mph
Humidity: 66%   Direction: 310°NW
Pressure: 29.86"   Gusts: NA
Location:  42.32°N, 71.64°W
Report Text: KORH 210154Z AUTO 31005KT 10SM FEW048 BKN060 M02/M08 A2986 RMK AO2 SLP124 LAST AUGMENTED OBS T10221078
Loading
Personal Weather Stations






























Interactive Weather Map New forecast layout! Learn more

10-Day Weather Forecast

Advertisements
Track Severe Weather on mobile